createdAt,value
2022-09-15T00:02:18.585Z,14.73
2022-09-15T00:07:18.456Z,14.68
2022-09-15T00:12:18.381Z,14.60
2022-09-15T00:17:18.325Z,14.55
2022-09-15T00:22:18.251Z,14.47
2022-09-15T00:27:18.197Z,14.43
2022-09-15T00:32:18.118Z,14.36
2022-09-15T00:37:18.069Z,14.40
2022-09-15T00:42:17.986Z,14.43
2022-09-15T00:47:19.711Z,14.44
2022-09-15T00:52:17.852Z,14.43
2022-09-15T00:57:17.791Z,14.45
2022-09-15T01:02:17.765Z,14.50
2022-09-15T01:07:17.659Z,14.54
2022-09-15T01:12:17.583Z,14.59
2022-09-15T01:17:17.525Z,14.62
2022-09-15T01:22:17.448Z,14.66
2022-09-15T01:27:38.140Z,14.69
2022-09-15T01:32:18.346Z,14.70
2022-09-15T01:37:17.265Z,14.70
2022-09-15T01:42:17.187Z,14.69
2022-09-15T01:47:17.127Z,14.68
2022-09-15T01:52:17.051Z,14.70
2022-09-15T01:57:16.990Z,14.70
2022-09-15T02:02:16.984Z,14.72
2022-09-15T02:07:16.869Z,14.72
2022-09-15T02:12:16.782Z,14.76
2022-09-15T02:17:16.722Z,14.76
2022-09-15T02:22:16.648Z,14.76
2022-09-15T02:27:16.589Z,14.77
2022-09-15T02:32:16.514Z,14.78
2022-09-15T02:37:16.455Z,14.77
2022-09-15T02:42:16.383Z,14.78
2022-09-15T02:47:16.320Z,14.69
2022-09-15T02:52:16.246Z,14.68
2022-09-15T02:57:16.185Z,14.68
2022-09-15T03:02:16.162Z,14.72
2022-09-15T03:07:16.052Z,14.72
2022-09-15T03:12:15.980Z,14.73
2022-09-15T03:17:15.920Z,14.76
2022-09-15T03:22:15.842Z,14.76
2022-09-15T03:27:15.782Z,14.76
2022-09-15T03:32:15.710Z,14.77
2022-09-15T03:37:15.656Z,14.76
2022-09-15T03:42:15.596Z,14.72
2022-09-15T03:47:15.511Z,14.72
2022-09-15T03:52:15.467Z,14.68
2022-09-15T03:57:15.376Z,14.62
2022-09-15T04:02:15.410Z,14.59
2022-09-15T04:07:15.241Z,14.55
2022-09-15T04:12:15.192Z,14.54
2022-09-15T04:17:15.109Z,14.54
2022-09-15T04:22:17.843Z,14.53
2022-09-15T04:27:14.973Z,14.53
2022-09-15T04:32:14.914Z,14.50
2022-09-15T04:37:14.843Z,14.45
2022-09-15T04:42:14.780Z,14.43
2022-09-15T04:47:14.706Z,14.47
2022-09-15T04:52:14.647Z,14.45
2022-09-15T04:57:14.572Z,14.44
2022-09-15T05:02:14.557Z,14.40
2022-09-15T05:07:14.443Z,14.40
2022-09-15T05:12:14.391Z,14.43
2022-09-15T05:17:14.308Z,14.47
2022-09-15T05:22:14.260Z,14.53
2022-09-15T05:27:14.176Z,14.69
2022-09-15T05:32:14.126Z,14.81
2022-09-15T05:37:14.045Z,14.88
2022-09-15T05:42:13.985Z,14.95
2022-09-15T05:47:13.914Z,15.06
2022-09-15T05:52:13.854Z,15.18
2022-09-15T05:57:13.776Z,15.35
2022-09-15T06:02:13.765Z,15.75
2022-09-15T06:07:13.648Z,16.35
2022-09-15T06:12:13.587Z,16.68
2022-09-15T06:17:13.516Z,16.60
2022-09-15T06:22:13.462Z,16.53
2022-09-15T06:27:13.386Z,16.57
2022-09-15T06:32:13.389Z,16.67
2022-09-15T06:37:13.258Z,16.65
2022-09-15T06:42:13.982Z,16.60
2022-09-15T06:47:13.124Z,16.65
2022-09-15T06:52:13.065Z,16.74
2022-09-15T06:57:12.993Z,16.75
2022-09-15T07:02:13.123Z,16.71
2022-09-15T07:07:12.869Z,17.14
2022-09-15T07:12:12.814Z,18.30
2022-09-15T07:17:12.733Z,18.70
2022-09-15T07:22:12.681Z,18.35
2022-09-15T07:27:12.649Z,18.02
2022-09-15T07:32:12.547Z,17.86
2022-09-15T07:37:12.472Z,17.84
2022-09-15T07:42:12.405Z,17.86
2022-09-15T07:47:12.334Z,17.71
2022-09-15T07:52:12.274Z,17.57
2022-09-15T07:57:12.200Z,17.62
2022-09-15T08:02:12.228Z,17.60
2022-09-15T08:07:12.068Z,17.54
2022-09-15T08:12:12.010Z,17.51
2022-09-15T08:17:11.999Z,17.73
2022-09-15T08:22:11.889Z,18.45
2022-09-15T08:27:11.807Z,18.47
2022-09-15T08:32:11.762Z,18.80
2022-09-15T08:37:11.677Z,19.73
2022-09-15T08:42:11.639Z,20.03
2022-09-15T08:47:11.544Z,21.05
2022-09-15T08:52:11.494Z,22.25
2022-09-15T08:57:11.412Z,23.10
2022-09-15T09:02:11.353Z,24.02
2022-09-15T09:07:11.293Z,25.09
2022-09-15T09:12:11.225Z,25.59
2022-09-15T09:17:11.161Z,25.96
2022-09-15T09:22:11.095Z,25.88
2022-09-15T09:27:11.032Z,25.55
2022-09-15T09:32:10.965Z,25.90
2022-09-15T09:37:10.908Z,26.15
2022-09-15T09:42:10.843Z,25.80
2022-09-15T09:47:10.773Z,25.85
2022-09-15T09:52:10.721Z,26.07
2022-09-15T09:57:10.642Z,26.07
2022-09-15T10:02:10.583Z,26.30
2022-09-15T10:07:10.510Z,24.73
2022-09-15T10:12:10.467Z,23.95
2022-09-15T10:17:10.385Z,24.29
2022-09-15T10:22:10.327Z,23.28
2022-09-15T10:27:10.267Z,22.68
2022-09-15T10:32:10.239Z,22.01
2022-09-15T10:37:10.137Z,21.92
2022-09-15T10:42:10.071Z,22.76
2022-09-15T10:47:10.008Z,23.10
2022-09-15T10:52:09.940Z,22.60
2022-09-15T10:57:09.875Z,22.24
2022-09-15T11:02:09.842Z,22.28
2022-09-15T11:07:09.736Z,21.99
2022-09-15T11:12:09.682Z,21.54
2022-09-15T11:17:09.615Z,21.11
2022-09-15T11:22:09.554Z,20.65
2022-09-15T11:27:09.484Z,20.46
2022-09-15T11:32:09.457Z,20.43
2022-09-15T11:37:09.349Z,20.68
2022-09-15T11:42:09.294Z,21.29
2022-09-15T11:47:09.228Z,21.61
2022-09-15T11:52:09.165Z,21.99
2022-09-15T11:57:09.097Z,22.09
2022-09-15T12:02:09.157Z,21.79
2022-09-15T12:07:11.116Z,21.54
2022-09-15T12:12:08.904Z,21.04
2022-09-15T12:17:08.843Z,20.81
2022-09-15T12:22:08.765Z,20.79
2022-09-15T12:27:08.707Z,20.84
2022-09-15T12:32:08.633Z,20.98
2022-09-15T12:37:08.578Z,21.10
2022-09-15T12:42:08.504Z,21.02
2022-09-15T12:47:08.447Z,20.96
2022-09-15T12:52:08.374Z,20.86
2022-09-15T12:57:08.327Z,20.74
2022-09-15T13:02:08.330Z,20.51
2022-09-15T13:07:09.808Z,20.34
2022-09-15T13:12:08.126Z,20.29
2022-09-15T13:17:08.058Z,20.18
2022-09-15T13:22:07.999Z,19.99
2022-09-15T13:27:07.927Z,19.81
2022-09-15T13:32:07.867Z,19.73
2022-09-15T13:42:08.754Z,19.77
2022-09-15T13:47:07.679Z,19.63
2022-09-15T13:52:07.597Z,19.48
2022-09-15T13:57:07.549Z,19.30
2022-09-15T14:02:08.430Z,19.13
2022-09-15T14:07:07.440Z,19.14
2022-09-15T14:12:07.337Z,19.15
2022-09-15T14:17:07.312Z,19.08
2022-09-15T14:22:07.199Z,19.03
2022-09-15T14:27:07.152Z,19.11
2022-09-15T14:32:07.127Z,19.08
2022-09-15T14:37:07.007Z,18.98
2022-09-15T14:42:06.930Z,18.90
2022-09-15T14:47:06.867Z,18.83
2022-09-15T14:52:06.792Z,18.70
2022-09-15T14:57:06.734Z,18.59
2022-09-15T15:02:06.722Z,18.52
2022-09-15T15:07:06.613Z,18.56
2022-09-15T15:12:06.529Z,18.62
2022-09-15T15:17:06.643Z,18.68
2022-09-15T15:22:06.405Z,18.71
2022-09-15T15:27:06.363Z,18.71
2022-09-15T15:32:06.379Z,18.71
2022-09-15T15:37:06.231Z,18.65
2022-09-15T15:42:06.151Z,18.50
2022-09-15T15:47:06.101Z,18.37
2022-09-15T15:52:06.025Z,18.21
2022-09-15T15:57:05.973Z,18.10
2022-09-15T16:02:05.922Z,18.03
2022-09-15T16:07:05.844Z,17.99
2022-09-15T16:12:05.775Z,17.96
2022-09-15T16:17:05.720Z,17.96
2022-09-15T16:22:05.648Z,17.91
2022-09-15T16:27:05.602Z,17.85
2022-09-15T16:32:05.526Z,17.75
2022-09-15T16:37:05.475Z,17.67
2022-09-15T16:42:05.410Z,17.60
2022-09-15T16:47:05.348Z,17.56
2022-09-15T16:52:05.271Z,17.49
2022-09-15T16:57:05.222Z,17.45
2022-09-15T17:02:05.177Z,17.33
2022-09-15T17:07:05.090Z,17.24
2022-09-15T17:12:05.062Z,17.20
2022-09-15T17:17:04.958Z,17.15
2022-09-15T17:22:04.877Z,17.06
2022-09-15T17:27:04.828Z,17.05
2022-09-15T17:32:04.744Z,16.96
2022-09-15T17:37:04.695Z,16.93
2022-09-15T17:42:04.621Z,16.85
2022-09-15T17:47:04.553Z,16.75
2022-09-15T17:52:04.478Z,16.68
2022-09-15T17:57:04.421Z,16.65
2022-09-15T18:02:04.467Z,16.64
2022-09-15T18:07:04.288Z,16.59
2022-09-15T18:12:04.216Z,16.53
2022-09-15T18:17:04.158Z,16.49
2022-09-15T18:22:04.084Z,16.48
2022-09-15T18:27:04.038Z,16.42
2022-09-15T18:32:03.951Z,16.40
2022-09-15T18:37:03.905Z,16.35
2022-09-15T18:42:03.823Z,16.35
2022-09-15T18:47:03.772Z,16.31
2022-09-15T18:52:03.688Z,16.31
2022-09-15T18:57:03.642Z,16.30
2022-09-15T19:02:03.684Z,16.31
2022-09-15T19:07:03.498Z,16.32
2022-09-15T19:12:03.425Z,16.30
2022-09-15T19:17:03.421Z,16.25
2022-09-15T19:22:03.296Z,16.27
2022-09-15T19:27:03.237Z,16.25
2022-09-15T19:32:03.167Z,16.23
2022-09-15T19:37:05.806Z,16.20
2022-09-15T19:42:03.089Z,16.17
2022-09-15T19:47:02.974Z,16.13
2022-09-15T19:52:02.906Z,16.05
2022-09-15T19:57:02.842Z,16.04
2022-09-15T20:02:02.790Z,16.02
2022-09-15T20:07:02.713Z,16.04
2022-09-15T20:12:02.640Z,16.02
2022-09-15T20:17:02.617Z,16.01
2022-09-15T20:22:02.528Z,16.00
2022-09-15T20:27:02.451Z,15.97
2022-09-15T20:32:02.387Z,15.91
2022-09-15T20:37:02.323Z,15.88
2022-09-15T20:42:02.258Z,15.86
2022-09-15T20:47:02.189Z,15.84
2022-09-15T20:52:02.128Z,15.80
2022-09-15T20:57:02.058Z,15.75
2022-09-15T21:02:02.141Z,15.70
2022-09-15T21:07:01.929Z,15.64
2022-09-15T21:12:01.859Z,15.58
2022-09-15T21:17:01.807Z,15.49
2022-09-15T21:22:01.729Z,15.41
2022-09-15T21:27:01.668Z,15.41
2022-09-15T21:32:01.671Z,15.41
2022-09-15T21:37:01.540Z,15.36
2022-09-15T21:42:01.478Z,15.32
2022-09-15T21:47:01.406Z,15.24
2022-09-15T21:52:01.347Z,15.16
2022-09-15T21:57:01.282Z,15.06
2022-09-15T22:02:01.340Z,14.96
2022-09-15T22:07:01.148Z,14.84
2022-09-15T22:12:01.084Z,14.76
2022-09-15T22:17:01.019Z,14.69
2022-09-15T22:22:00.946Z,14.66
2022-09-15T22:27:00.884Z,14.66
2022-09-15T22:32:00.891Z,14.68
2022-09-15T22:37:00.756Z,14.68
2022-09-15T22:42:00.676Z,14.70
2022-09-15T22:47:00.617Z,14.70
2022-09-15T22:52:00.540Z,14.69
2022-09-15T22:57:00.482Z,14.65
2022-09-15T23:02:00.537Z,14.59
2022-09-15T23:07:00.348Z,14.54
2022-09-15T23:12:00.292Z,14.50
2022-09-15T23:17:00.217Z,14.44
2022-09-15T23:22:00.149Z,14.33
2022-09-15T23:27:00.084Z,14.23
2022-09-15T23:32:00.014Z,14.12
2022-09-15T23:36:59.944Z,13.98
2022-09-15T23:41:59.870Z,13.86
2022-09-15T23:46:59.894Z,13.77
2022-09-15T23:51:59.734Z,13.73
2022-09-15T23:56:59.673Z,13.67
